Historyczne dane pomiarowe

Dodano dane terminowe – wersja testowa.

Dane z okresu 1951-2019

Wersja bazy: 1.34 [2019-03-16, lista zmian], aktualizacja planowana na 2019-04-15

Dane meteo z obszaru Polski uzyskane na podstawie danych udostępnionych przez Instytut Meteorologii i Gospodarki Wodnej – Państwowy Instytut Badawczy.

 

Wybierz Datę:    

       

TemperaturaWilgotnośćWiatrCiśnienieOpadyŚniegCzas trwania zjawisk
 Stacja t tx tn tng RH VA  wxwx mslp ppp RRR   cm mm wxwxwxwxwxwxwx
1983-08-14 14.9 21.0 8.2 6.8 69.3- 2.7 3.0---- 0.0------------
1983-08-13 15.1 22.3 11.6 11.8 81.3- 6.0 5.0---- 0.5------------
1983-08-12 20.3 28.0 12.7 11.2 72.0- 2.3 2.0---- 3.0------------
1983-08-11 20.4 28.2 12.7 11.7 68.5- 2.7 1.0---- 0.0------------
1983-08-10 20.4 27.0 11.6 11.7 69.3- 1.3 0.0---- 0.0------------
1983-08-09 21.2 28.0 15.3 14.2 71.3- 2.0 1.0---- 0.0------------
1983-08-08 20.0 29.0 15.3 13.7 82.5- 4.0 1.0---- 15.6------------
1983-08-07 19.9 27.0 16.3 14.0 84.5- 5.0 2.0---- 0.0------------
1983-08-06 17.3 21.5 9.6 6.8 71.3- 1.3 1.0---- 0.0------------
1983-08-05 13.7 17.5 11.1 11.2 85.0- 6.0 2.0---- 0.0------------
1983-08-04 15.1 20.0 13.7 14.7 90.8- 8.0 3.0---- 12.3------------
1983-08-03 20.5 28.0 16.3 14.0 78.3- 8.0 3.0---- 5.4------------
1983-08-02 22.5 29.0 14.7 12.2 64.5- 3.0 4.0---- 0.3------------
1983-08-01 19.7 27.0 10.1 7.4 60.3- 0.0 3.0---- 0.0------------
1983-07-31 17.8 25.0 9.6 8.7 66.0- 1.7 1.0---- 0.0------------
1983-07-30 18.1 21.0 15.8 12.9 76.8- 7.0 4.0---- 0.0------------
1983-07-29 19.0 26.0 11.6 9.7 68.0- 4.3 2.0---- 0.0------------
1983-07-28 20.3 27.8 17.8 16.6 78.5- 3.0 2.0---- 0.0------------
1983-07-27 22.7 31.0 12.2 9.7 63.5- 0.0 0.0---- 1.8------------
1983-07-26 20.6 30.0 13.2 11.0 74.3- 4.0 2.0---- 0.0------------
1983-07-25 14.8 18.0 8.6 7.8 82.5- 7.0 3.0---- 14.8------------
1983-07-24 15.2 20.5 9.6 9.9 79.5- 4.7 0.0---- 0.0------------
1983-07-23 16.0 20.0 11.1 9.7 78.3- 7.0 4.0---- 0.0------------
1983-07-22 14.1 21.0 7.7 6.3 69.8- 5.3 2.7---- 1.8------------
1983-07-21 11.9 15.0 7.7 6.8 82.5- 5.7 5.0---- 0.1------------
1983-07-20 14.0 22.8 11.4 13.7 83.8- 7.0 4.0---- 8.0------------
1983-07-19 22.5 27.0 18.9 17.6 67.3- 3.3 3.0---- 0.0------------
1983-07-18 20.8 27.0 9.6 7.3 58.3- 1.3 2.0---- 0.3------------
1983-07-17 19.4 25.0 12.2 10.2 67.3- 3.7 2.0---- 0.0------------
1983-07-16 18.7 24.3 12.2 10.7 78.3- 5.0 2.0---- 0.1------------
1983-07-15 19.5 27.0 9.6 7.7 62.0- 2.3 1.0---- 0.0------------
1983-07-14 21.0 27.0 16.3 13.7 73.0- 4.3 3.0---- 0.0------------
1983-07-13 20.7 28.0 14.7 13.7 75.5- 3.7 2.0---- 0.1------------
1983-07-12 21.8 28.0 16.3 15.1 75.0- 3.7 1.0---- 0.0------------
1983-07-11 21.3 26.0 15.8 14.7 80.8- 6.0 3.0---- 2.5------------
1983-07-10 22.6 31.0 13.7 10.7 65.3- 2.3 2.0---- 0.0------------
1983-07-09 21.8 29.5 12.7 9.7 64.0- 2.0 1.0---- 0.0------------
1983-07-08 19.7 27.5 8.6 7.7 65.5- 2.0 0.3---- 0.0------------
1983-07-07 18.4 26.0 10.1 9.7 64.5- 0.0 1.0---- 0.0------------
1983-07-06 20.0 27.0 11.1 9.7 69.8- 2.0 1.0---- 0.0------------
1983-07-05 18.8 25.0 10.6 9.7 68.8- 0.3 1.0---- 0.0------------
1983-07-04 20.8 27.0 15.8 14.7 71.0- 3.3 1.0---- 0.0------------
1983-07-03 16.5 24.0 9.6 7.7 71.0- 6.0 1.0---- 0.0------------
1983-07-02 17.2 24.3 13.7 11.2 85.8- 6.0 2.0---- 6.0------------
1983-07-01 19.5 25.0 10.1 8.0 76.8- 4.3 1.0---- 0.0------------
1983-06-30 16.3 22.5 9.1 7.7 67.8- 1.3 3.0---- 0.0------------
1983-06-29 14.5 20.0 7.2 4.8 72.5- 2.7 2.0---- 0.0------------
1983-06-28 16.6 20.0 14.7 13.7 79.5- 7.0 2.0---- 8.0------------
1983-06-27 17.3 26.0 10.6 8.2 88.0- 7.0 2.0---- 8.5------------
1983-06-26 19.2 24.8 9.6 8.2 61.8- 0.7 1.0---- 1.7------------
1983-06-25 20.2 28.2 10.6 7.7 65.8- 4.7 1.0---- 0.3------------
1983-06-24 18.8 25.8 7.2 3.8 56.8- 0.0 1.0---- 0.0------------
1983-06-23 14.6 21.5 4.8 1.9 61.5- 0.0 1.0---- 0.0------------
1983-06-22 12.8 17.8 4.8 2.8 67.0- 0.0 2.0---- 0.0------------
1983-06-21 16.8 24.0 11.1 8.2 75.5- 0.0 2.0---- 0.0------------
1983-06-20 20.6 25.5 13.7 12.2 65.0- 0.7 0.0---- 0.0------------
1983-06-19 17.3 22.0 13.2 12.2 85.0- 7.0 2.0---- 0.0------------
1983-06-18 13.8 17.5 9.6 8.7 85.5- 7.0 3.0---- 0.0------------
1983-06-17 14.3 19.5 8.2 7.7 82.3- 7.0 2.0---- 0.0------------
1983-06-16 12.9 16.5 10.1 9.7 80.8- 8.0 4.0---- 0.0------------
267.6 ms

 

Źródłem pochodzenia danych jest Instytut Meteorologii i Gospodarki Wodnej – Państwowy Instytut Badawczy. Dane Instytutu Meteorologii i Gospodarki Wodnej – Państwowego Instytutu Badawczego zostały przetworzone.

Dane źródłowe można odnaleźć na stronie https://dane.imgw.pl